sensor_id;sensor_type;location;lat;lon;timestamp;temperature;humidity
37289;DHT22;23174;49.462;11.000;2023-04-06T00:00:23;6.80;99.90
37289;DHT22;23174;49.462;11.000;2023-04-06T00:02:24;6.90;99.90
37289;DHT22;23174;49.462;11.000;2023-04-06T00:04:25;6.90;99.90
37289;DHT22;23174;49.462;11.000;2023-04-06T00:06:26;6.70;99.90
37289;DHT22;23174;49.462;11.000;2023-04-06T00:08:27;6.80;99.90
37289;DHT22;23174;49.462;11.000;2023-04-06T00:10:28;6.70;99.90
37289;DHT22;23174;49.462;11.000;2023-04-06T00:12:28;6.80;99.90
37289;DHT22;23174;49.462;11.000;2023-04-06T00:14:29;6.70;99.90
37289;DHT22;23174;49.462;11.000;2023-04-06T00:16:29;6.60;99.90
37289;DHT22;23174;49.462;11.000;2023-04-06T00:18:30;6.60;99.90
37289;DHT22;23174;49.462;11.000;2023-04-06T00:20:31;6.60;99.90
37289;DHT22;23174;49.462;11.000;2023-04-06T00:22:32;6.70;99.90
37289;DHT22;23174;49.462;11.000;2023-04-06T00:24:33;6.80;99.90
37289;DHT22;23174;49.462;11.000;2023-04-06T00:26:33;6.80;99.90
37289;DHT22;23174;49.462;11.000;2023-04-06T00:28:34;6.70;99.90
37289;DHT22;23174;49.462;11.000;2023-04-06T00:30:34;6.70;99.90
37289;DHT22;23174;49.462;11.000;2023-04-06T00:32:35;6.80;99.90
37289;DHT22;23174;49.462;11.000;2023-04-06T00:34:36;6.70;99.90
37289;DHT22;23174;49.462;11.000;2023-04-06T00:36:37;6.80;99.90
37289;DHT22;23174;49.462;11.000;2023-04-06T00:38:37;6.80;99.90
37289;DHT22;23174;49.462;11.000;2023-04-06T00:40:38;6.70;99.90
37289;DHT22;23174;49.462;11.000;2023-04-06T00:42:41;6.60;99.90
37289;DHT22;23174;49.462;11.000;2023-04-06T00:44:41;6.50;99.90
37289;DHT22;23174;49.462;11.000;2023-04-06T00:46:42;6.40;99.90
37289;DHT22;23174;49.462;11.000;2023-04-06T00:48:43;6.40;99.90
37289;DHT22;23174;49.462;11.000;2023-04-06T00:50:43;6.40;99.90
37289;DHT22;23174;49.462;11.000;2023-04-06T00:52:44;6.40;99.90
37289;DHT22;23174;49.462;11.000;2023-04-06T00:54:45;6.40;99.90
37289;DHT22;23174;49.462;11.000;2023-04-06T00:56:46;6.40;99.90
37289;DHT22;23174;49.462;11.000;2023-04-06T00:58:46;6.30;99.90
37289;DHT22;23174;49.462;11.000;2023-04-06T01:00:47;6.30;99.90
37289;DHT22;23174;49.462;11.000;2023-04-06T01:02:48;6.40;99.90
37289;DHT22;23174;49.462;11.000;2023-04-06T01:04:49;6.40;99.90
37289;DHT22;23174;49.462;11.000;2023-04-06T01:06:50;6.30;99.90
37289;DHT22;23174;49.462;11.000;2023-04-06T01:08:51;6.50;99.90
37289;DHT22;23174;49.462;11.000;2023-04-06T01:10:51;6.50;99.90
37289;DHT22;23174;49.462;11.000;2023-04-06T01:12:52;6.40;99.90
37289;DHT22;23174;49.462;11.000;2023-04-06T01:14:52;6.50;99.90
37289;DHT22;23174;49.462;11.000;2023-04-06T01:16:53;6.40;99.90
37289;DHT22;23174;49.462;11.000;2023-04-06T01:18:54;6.40;99.90
37289;DHT22;23174;49.462;11.000;2023-04-06T01:20:55;6.40;99.90
37289;DHT22;23174;49.462;11.000;2023-04-06T01:22:55;6.50;99.90
37289;DHT22;23174;49.462;11.000;2023-04-06T01:24:56;6.50;99.80
37289;DHT22;23174;49.462;11.000;2023-04-06T01:26:57;6.30;99.70
37289;DHT22;23174;49.462;11.000;2023-04-06T01:28:57;6.30;99.60
37289;DHT22;23174;49.462;11.000;2023-04-06T01:30:58;6.30;99.90
37289;DHT22;23174;49.462;11.000;2023-04-06T01:32:59;6.30;99.70
37289;DHT22;23174;49.462;11.000;2023-04-06T01:34:59;6.30;99.60
37289;DHT22;23174;49.462;11.000;2023-04-06T01:37:00;6.20;99.40
37289;DHT22;23174;49.462;11.000;2023-04-06T01:39:01;6.20;99.90
37289;DHT22;23174;49.462;11.000;2023-04-06T01:41:01;6.10;99.50
37289;DHT22;23174;49.462;11.000;2023-04-06T01:43:02;6.20;99.80
37289;DHT22;23174;49.462;11.000;2023-04-06T01:45:03;6.30;99.50
37289;DHT22;23174;49.462;11.000;2023-04-06T01:47:04;6.30;99.10
37289;DHT22;23174;49.462;11.000;2023-04-06T01:49:04;6.10;99.50
37289;DHT22;23174;49.462;11.000;2023-04-06T01:51:05;6.10;99.40
37289;DHT22;23174;49.462;11.000;2023-04-06T01:53:06;6.10;99.40
37289;DHT22;23174;49.462;11.000;2023-04-06T01:55:06;6.00;99.70
37289;DHT22;23174;49.462;11.000;2023-04-06T01:57:07;6.00;99.50
37289;DHT22;23174;49.462;11.000;2023-04-06T01:59:08;6.10;99.90
37289;DHT22;23174;49.462;11.000;2023-04-06T02:01:08;6.10;99.80
37289;DHT22;23174;49.462;11.000;2023-04-06T02:03:09;6.20;99.80
37289;DHT22;23174;49.462;11.000;2023-04-06T02:05:10;6.20;99.70
37289;DHT22;23174;49.462;11.000;2023-04-06T02:07:11;6.20;99.30
37289;DHT22;23174;49.462;11.000;2023-04-06T02:09:11;6.30;99.20
37289;DHT22;23174;49.462;11.000;2023-04-06T02:11:12;6.10;99.20
37289;DHT22;23174;49.462;11.000;2023-04-06T02:13:12;6.10;99.50
37289;DHT22;23174;49.462;11.000;2023-04-06T02:15:13;6.00;99.70
37289;DHT22;23174;49.462;11.000;2023-04-06T02:17:14;6.00;99.90
37289;DHT22;23174;49.462;11.000;2023-04-06T02:19:14;6.10;99.70
37289;DHT22;23174;49.462;11.000;2023-04-06T02:21:15;6.10;99.50
37289;DHT22;23174;49.462;11.000;2023-04-06T02:23:20;6.10;99.60
37289;DHT22;23174;49.462;11.000;2023-04-06T02:25:20;6.00;99.50
37289;DHT22;23174;49.462;11.000;2023-04-06T02:27:21;6.10;99.90
37289;DHT22;23174;49.462;11.000;2023-04-06T02:29:22;6.10;99.90
37289;DHT22;23174;49.462;11.000;2023-04-06T02:31:23;6.10;99.80
37289;DHT22;23174;49.462;11.000;2023-04-06T02:33:23;6.10;99.80
37289;DHT22;23174;49.462;11.000;2023-04-06T02:35:25;6.10;99.70
37289;DHT22;23174;49.462;11.000;2023-04-06T02:37:26;6.10;99.90
37289;DHT22;23174;49.462;11.000;2023-04-06T02:39:26;6.10;99.50
37289;DHT22;23174;49.462;11.000;2023-04-06T02:41:27;6.00;99.60
37289;DHT22;23174;49.462;11.000;2023-04-06T02:43:27;6.00;99.90
37289;DHT22;23174;49.462;11.000;2023-04-06T02:45:28;5.90;99.90
37289;DHT22;23174;49.462;11.000;2023-04-06T02:47:29;5.80;99.90
37289;DHT22;23174;49.462;11.000;2023-04-06T02:49:29;5.80;99.90
37289;DHT22;23174;49.462;11.000;2023-04-06T02:51:30;6.00;99.90
37289;DHT22;23174;49.462;11.000;2023-04-06T02:53:31;5.90;99.90
37289;DHT22;23174;49.462;11.000;2023-04-06T02:55:31;5.80;99.90
37289;DHT22;23174;49.462;11.000;2023-04-06T02:57:32;5.70;99.90
37289;DHT22;23174;49.462;11.000;2023-04-06T02:59:33;5.70;99.90
37289;DHT22;23174;49.462;11.000;2023-04-06T03:01:33;5.80;99.90
37289;DHT22;23174;49.462;11.000;2023-04-06T03:03:34;5.80;99.90
37289;DHT22;23174;49.462;11.000;2023-04-06T03:05:35;5.80;99.90
37289;DHT22;23174;49.462;11.000;2023-04-06T03:07:35;5.70;99.90
37289;DHT22;23174;49.462;11.000;2023-04-06T03:09:37;5.70;99.90
37289;DHT22;23174;49.462;11.000;2023-04-06T03:11:38;5.60;99.90
37289;DHT22;23174;49.462;11.000;2023-04-06T03:13:38;5.70;99.90
37289;DHT22;23174;49.462;11.000;2023-04-06T03:15:39;5.90;99.90
37289;DHT22;23174;49.462;11.000;2023-04-06T03:17:39;5.90;99.90
37289;DHT22;23174;49.462;11.000;2023-04-06T03:19:40;6.00;99.90
37289;DHT22;23174;49.462;11.000;2023-04-06T03:21:41;6.10;99.90
37289;DHT22;23174;49.462;11.000;2023-04-06T03:23:42;6.10;99.90
37289;DHT22;23174;49.462;11.000;2023-04-06T03:25:43;5.90;99.90
37289;DHT22;23174;49.462;11.000;2023-04-06T03:27:43;5.70;99.90
37289;DHT22;23174;49.462;11.000;2023-04-06T03:29:44;5.70;99.90
37289;DHT22;23174;49.462;11.000;2023-04-06T03:31:45;5.70;99.90
37289;DHT22;23174;49.462;11.000;2023-04-06T03:33:46;5.80;99.90
37289;DHT22;23174;49.462;11.000;2023-04-06T03:35:46;5.80;99.90
37289;DHT22;23174;49.462;11.000;2023-04-06T03:37:47;5.60;99.90
37289;DHT22;23174;49.462;11.000;2023-04-06T03:39:47;5.60;99.90
37289;DHT22;23174;49.462;11.000;2023-04-06T03:41:48;5.60;99.90
37289;DHT22;23174;49.462;11.000;2023-04-06T03:43:49;5.70;99.90
37289;DHT22;23174;49.462;11.000;2023-04-06T03:45:50;5.70;99.90
37289;DHT22;23174;49.462;11.000;2023-04-06T03:47:50;5.60;99.90
37289;DHT22;23174;49.462;11.000;2023-04-06T03:49:51;5.50;99.90
37289;DHT22;23174;49.462;11.000;2023-04-06T03:51:52;5.50;99.90
37289;DHT22;23174;49.462;11.000;2023-04-06T03:53:53;5.50;99.90
37289;DHT22;23174;49.462;11.000;2023-04-06T03:55:54;5.50;99.90
37289;DHT22;23174;49.462;11.000;2023-04-06T03:57:55;5.60;99.90
37289;DHT22;23174;49.462;11.000;2023-04-06T03:59:55;5.60;99.90
37289;DHT22;23174;49.462;11.000;2023-04-06T04:01:56;5.60;99.90
37289;DHT22;23174;49.462;11.000;2023-04-06T04:03:57;5.70;99.90
37289;DHT22;23174;49.462;11.000;2023-04-06T04:05:57;5.60;99.90
37289;DHT22;23174;49.462;11.000;2023-04-06T04:07:58;5.50;99.90
37289;DHT22;23174;49.462;11.000;2023-04-06T04:09:58;5.50;99.90
37289;DHT22;23174;49.462;11.000;2023-04-06T04:11:59;5.60;99.90
37289;DHT22;23174;49.462;11.000;2023-04-06T04:14:00;5.60;99.90
37289;DHT22;23174;49.462;11.000;2023-04-06T04:16:00;5.50;99.90
37289;DHT22;23174;49.462;11.000;2023-04-06T04:18:01;5.60;99.90
37289;DHT22;23174;49.462;11.000;2023-04-06T04:20:02;5.50;99.90
37289;DHT22;23174;49.462;11.000;2023-04-06T04:22:02;5.50;99.90
37289;DHT22;23174;49.462;11.000;2023-04-06T04:24:05;5.30;99.90
37289;DHT22;23174;49.462;11.000;2023-04-06T04:26:06;5.40;99.90
37289;DHT22;23174;49.462;11.000;2023-04-06T04:28:06;5.40;99.90
37289;DHT22;23174;49.462;11.000;2023-04-06T04:30:07;5.40;99.90
37289;DHT22;23174;49.462;11.000;2023-04-06T04:32:08;5.40;99.90
37289;DHT22;23174;49.462;11.000;2023-04-06T04:34:09;5.40;99.90
37289;DHT22;23174;49.462;11.000;2023-04-06T04:36:09;5.50;99.90
37289;DHT22;23174;49.462;11.000;2023-04-06T04:38:10;5.50;99.90
37289;DHT22;23174;49.462;11.000;2023-04-06T04:40:11;5.60;99.90
37289;DHT22;23174;49.462;11.000;2023-04-06T04:42:12;5.70;99.90
37289;DHT22;23174;49.462;11.000;2023-04-06T04:44:12;5.70;99.90
37289;DHT22;23174;49.462;11.000;2023-04-06T04:46:13;5.70;99.90
37289;DHT22;23174;49.462;11.000;2023-04-06T04:48:14;5.60;99.90
37289;DHT22;23174;49.462;11.000;2023-04-06T04:50:14;5.50;99.90
37289;DHT22;23174;49.462;11.000;2023-04-06T04:52:15;5.50;99.90
37289;DHT22;23174;49.462;11.000;2023-04-06T04:54:16;5.50;99.90
37289;DHT22;23174;49.462;11.000;2023-04-06T04:56:16;5.50;99.90
37289;DHT22;23174;49.462;11.000;2023-04-06T04:58:17;5.50;99.90
37289;DHT22;23174;49.462;11.000;2023-04-06T05:00:20;5.40;99.90
37289;DHT22;23174;49.462;11.000;2023-04-06T05:02:21;5.40;99.90
37289;DHT22;23174;49.462;11.000;2023-04-06T05:04:22;5.30;99.90
37289;DHT22;23174;49.462;11.000;2023-04-06T05:06:23;5.20;99.90
37289;DHT22;23174;49.462;11.000;2023-04-06T05:08:23;5.20;99.90
37289;DHT22;23174;49.462;11.000;2023-04-06T05:10:24;5.30;99.90
37289;DHT22;23174;49.462;11.000;2023-04-06T05:12:26;5.40;99.90
37289;DHT22;23174;49.462;11.000;2023-04-06T05:14:28;5.50;99.90
37289;DHT22;23174;49.462;11.000;2023-04-06T05:16:28;5.60;99.90
37289;DHT22;23174;49.462;11.000;2023-04-06T05:18:29;5.60;99.90
37289;DHT22;23174;49.462;11.000;2023-04-06T05:20:30;5.50;99.90
37289;DHT22;23174;49.462;11.000;2023-04-06T05:22:31;5.40;99.90
37289;DHT22;23174;49.462;11.000;2023-04-06T05:24:31;5.40;99.90
37289;DHT22;23174;49.462;11.000;2023-04-06T05:26:32;5.30;99.90
37289;DHT22;23174;49.462;11.000;2023-04-06T05:28:32;5.30;99.90
37289;DHT22;23174;49.462;11.000;2023-04-06T05:30:33;5.30;99.90
37289;DHT22;23174;49.462;11.000;2023-04-06T05:32:35;5.30;99.90
37289;DHT22;23174;49.462;11.000;2023-04-06T05:34:36;5.60;99.90
37289;DHT22;23174;49.462;11.000;2023-04-06T05:36:37;5.60;99.90
37289;DHT22;23174;49.462;11.000;2023-04-06T05:38:38;5.60;99.90
37289;DHT22;23174;49.462;11.000;2023-04-06T05:40:38;5.70;99.90
37289;DHT22;23174;49.462;11.000;2023-04-06T05:42:42;5.70;99.90
37289;DHT22;23174;49.462;11.000;2023-04-06T05:44:42;5.70;99.90
37289;DHT22;23174;49.462;11.000;2023-04-06T05:46:43;5.80;99.90
37289;DHT22;23174;49.462;11.000;2023-04-06T05:48:44;5.80;99.90
37289;DHT22;23174;49.462;11.000;2023-04-06T05:50:48;5.90;99.90
37289;DHT22;23174;49.462;11.000;2023-04-06T05:52:50;5.80;99.90
37289;DHT22;23174;49.462;11.000;2023-04-06T05:54:52;5.90;99.90
37289;DHT22;23174;49.462;11.000;2023-04-06T05:56:52;5.80;99.90
37289;DHT22;23174;49.462;11.000;2023-04-06T05:58:53;5.80;99.90
37289;DHT22;23174;49.462;11.000;2023-04-06T06:00:58;5.90;99.90
37289;DHT22;23174;49.462;11.000;2023-04-06T06:02:58;5.90;99.90
37289;DHT22;23174;49.462;11.000;2023-04-06T06:04:59;5.90;99.90
37289;DHT22;23174;49.462;11.000;2023-04-06T06:07:00;5.90;99.90
37289;DHT22;23174;49.462;11.000;2023-04-06T06:09:00;5.90;99.90
37289;DHT22;23174;49.462;11.000;2023-04-06T06:11:02;6.00;99.90
37289;DHT22;23174;49.462;11.000;2023-04-06T06:13:03;6.00;99.90
37289;DHT22;23174;49.462;11.000;2023-04-06T06:15:04;6.00;99.90
37289;DHT22;23174;49.462;11.000;2023-04-06T06:17:05;6.20;99.90
37289;DHT22;23174;49.462;11.000;2023-04-06T06:19:06;6.30;99.90
37289;DHT22;23174;49.462;11.000;2023-04-06T06:21:06;6.30;99.90
37289;DHT22;23174;49.462;11.000;2023-04-06T06:23:08;6.20;99.90
37289;DHT22;23174;49.462;11.000;2023-04-06T06:25:08;6.10;99.90
37289;DHT22;23174;49.462;11.000;2023-04-06T06:27:09;6.20;99.90
37289;DHT22;23174;49.462;11.000;2023-04-06T06:29:12;6.20;99.90
37289;DHT22;23174;49.462;11.000;2023-04-06T06:31:13;6.30;99.90
37289;DHT22;23174;49.462;11.000;2023-04-06T06:34:58;6.50;99.90
37289;DHT22;23174;49.462;11.000;2023-04-06T06:36:58;6.40;99.90
37289;DHT22;23174;49.462;11.000;2023-04-06T06:38:59;6.50;99.90
37289;DHT22;23174;49.462;11.000;2023-04-06T06:41:00;6.60;99.90
37289;DHT22;23174;49.462;11.000;2023-04-06T06:43:01;6.80;99.90
37289;DHT22;23174;49.462;11.000;2023-04-06T06:45:02;6.90;99.40
37289;DHT22;23174;49.462;11.000;2023-04-06T06:47:03;7.00;99.90
37289;DHT22;23174;49.462;11.000;2023-04-06T06:49:06;7.00;98.80
37289;DHT22;23174;49.462;11.000;2023-04-06T06:51:06;7.00;99.10
37289;DHT22;23174;49.462;11.000;2023-04-06T06:53:07;7.10;99.10
37289;DHT22;23174;49.462;11.000;2023-04-06T06:55:09;7.20;98.50
37289;DHT22;23174;49.462;11.000;2023-04-06T06:57:10;7.20;98.80
37289;DHT22;23174;49.462;11.000;2023-04-06T06:59:10;7.20;98.30
37289;DHT22;23174;49.462;11.000;2023-04-06T07:01:11;7.30;98.20
37289;DHT22;23174;49.462;11.000;2023-04-06T07:03:12;7.40;98.30
37289;DHT22;23174;49.462;11.000;2023-04-06T07:05:13;7.50;98.80
37289;DHT22;23174;49.462;11.000;2023-04-06T07:07:14;7.60;97.80
37289;DHT22;23174;49.462;11.000;2023-04-06T07:09:14;7.70;97.40
37289;DHT22;23174;49.462;11.000;2023-04-06T07:11:15;7.80;97.90
37289;DHT22;23174;49.462;11.000;2023-04-06T07:13:15;7.80;97.20
37289;DHT22;23174;49.462;11.000;2023-04-06T07:15:22;7.70;97.90
37289;DHT22;23174;49.462;11.000;2023-04-06T07:17:22;7.80;97.10
37289;DHT22;23174;49.462;11.000;2023-04-06T07:19:23;7.80;96.90
37289;DHT22;23174;49.462;11.000;2023-04-06T07:21:23;7.90;97.00
37289;DHT22;23174;49.462;11.000;2023-04-06T07:23:24;8.00;97.60
37289;DHT22;23174;49.462;11.000;2023-04-06T07:25:25;8.20;99.10
37289;DHT22;23174;49.462;11.000;2023-04-06T07:27:26;8.10;96.20
37289;DHT22;23174;49.462;11.000;2023-04-06T07:29:27;8.00;96.40
37289;DHT22;23174;49.462;11.000;2023-04-06T07:31:27;8.00;96.20
37289;DHT22;23174;49.462;11.000;2023-04-06T07:33:28;8.00;96.30
37289;DHT22;23174;49.462;11.000;2023-04-06T07:35:30;8.10;96.20
37289;DHT22;23174;49.462;11.000;2023-04-06T07:37:30;8.10;96.40
37289;DHT22;23174;49.462;11.000;2023-04-06T07:39:31;8.40;97.30
37289;DHT22;23174;49.462;11.000;2023-04-06T07:41:32;8.30;95.70
37289;DHT22;23174;49.462;11.000;2023-04-06T07:43:32;8.30;96.00
37289;DHT22;23174;49.462;11.000;2023-04-06T07:45:33;8.30;96.80
37289;DHT22;23174;49.462;11.000;2023-04-06T07:47:34;8.40;95.90
37289;DHT22;23174;49.462;11.000;2023-04-06T07:49:34;8.40;95.90
37289;DHT22;23174;49.462;11.000;2023-04-06T07:51:38;8.50;96.00
37289;DHT22;23174;49.462;11.000;2023-04-06T07:53:39;8.50;95.50
37289;DHT22;23174;49.462;11.000;2023-04-06T07:55:40;8.60;95.50
37289;DHT22;23174;49.462;11.000;2023-04-06T07:57:41;8.60;95.70
37289;DHT22;23174;49.462;11.000;2023-04-06T07:59:41;8.60;96.10
37289;DHT22;23174;49.462;11.000;2023-04-06T08:01:42;8.80;96.40
37289;DHT22;23174;49.462;11.000;2023-04-06T08:03:42;9.00;96.60
37289;DHT22;23174;49.462;11.000;2023-04-06T08:05:43;9.20;96.50
37289;DHT22;23174;49.462;11.000;2023-04-06T08:07:44;9.20;96.10
37289;DHT22;23174;49.462;11.000;2023-04-06T08:09:45;9.20;94.90
37289;DHT22;23174;49.462;11.000;2023-04-06T08:11:45;9.20;95.50
37289;DHT22;23174;49.462;11.000;2023-04-06T08:13:48;9.30;94.70
37289;DHT22;23174;49.462;11.000;2023-04-06T08:15:48;9.30;94.90
37289;DHT22;23174;49.462;11.000;2023-04-06T08:17:49;9.40;95.30
37289;DHT22;23174;49.462;11.000;2023-04-06T08:19:50;9.50;94.50
37289;DHT22;23174;49.462;11.000;2023-04-06T08:21:50;9.50;94.70
37289;DHT22;23174;49.462;11.000;2023-04-06T08:23:51;9.60;94.40
37289;DHT22;23174;49.462;11.000;2023-04-06T08:25:52;9.50;94.60
37289;DHT22;23174;49.462;11.000;2023-04-06T08:27:56;9.70;94.10
37289;DHT22;23174;49.462;11.000;2023-04-06T08:29:56;9.70;94.40
37289;DHT22;23174;49.462;11.000;2023-04-06T08:31:57;9.80;94.40
37289;DHT22;23174;49.462;11.000;2023-04-06T08:33:58;9.80;95.00
37289;DHT22;23174;49.462;11.000;2023-04-06T08:35:58;9.80;94.10
37289;DHT22;23174;49.462;11.000;2023-04-06T08:37:59;10.00;93.80
37289;DHT22;23174;49.462;11.000;2023-04-06T08:40:00;10.10;93.70
37289;DHT22;23174;49.462;11.000;2023-04-06T08:42:01;10.10;93.60
37289;DHT22;23174;49.462;11.000;2023-04-06T08:44:03;10.10;93.50
37289;DHT22;23174;49.462;11.000;2023-04-06T08:46:05;10.10;93.70
37289;DHT22;23174;49.462;11.000;2023-04-06T08:48:06;10.20;93.80
37289;DHT22;23174;49.462;11.000;2023-04-06T08:50:09;10.30;93.60
37289;DHT22;23174;49.462;11.000;2023-04-06T08:52:11;10.40;94.00
37289;DHT22;23174;49.462;11.000;2023-04-06T08:54:12;10.40;93.60
37289;DHT22;23174;49.462;11.000;2023-04-06T08:56:13;10.50;94.30
37289;DHT22;23174;49.462;11.000;2023-04-06T08:58:14;10.40;92.90
37289;DHT22;23174;49.462;11.000;2023-04-06T09:00:15;10.40;93.00
37289;DHT22;23174;49.462;11.000;2023-04-06T09:02:42;10.50;94.40
37289;DHT22;23174;49.462;11.000;2023-04-06T09:04:46;10.40;93.20
37289;DHT22;23174;49.462;11.000;2023-04-06T09:06:48;10.40;93.20
37289;DHT22;23174;49.462;11.000;2023-04-06T09:08:50;10.40;93.10
37289;DHT22;23174;49.462;11.000;2023-04-06T09:10:51;10.40;93.30
37289;DHT22;23174;49.462;11.000;2023-04-06T09:13:03;10.60;94.60
37289;DHT22;23174;49.462;11.000;2023-04-06T09:15:04;10.80;93.00
37289;DHT22;23174;49.462;11.000;2023-04-06T09:17:05;10.90;91.60
37289;DHT22;23174;49.462;11.000;2023-04-06T09:19:06;10.90;91.30
37289;DHT22;23174;49.462;11.000;2023-04-06T09:21:08;10.90;91.60
37289;DHT22;23174;49.462;11.000;2023-04-06T09:23:18;11.10;90.30
37289;DHT22;23174;49.462;11.000;2023-04-06T09:25:21;11.00;89.70
37289;DHT22;23174;49.462;11.000;2023-04-06T09:27:32;11.10;90.00
37289;DHT22;23174;49.462;11.000;2023-04-06T09:29:33;11.20;90.90
37289;DHT22;23174;49.462;11.000;2023-04-06T09:31:35;11.30;90.50
37289;DHT22;23174;49.462;11.000;2023-04-06T09:33:41;11.30;89.50
37289;DHT22;23174;49.462;11.000;2023-04-06T09:35:49;11.30;88.00
37289;DHT22;23174;49.462;11.000;2023-04-06T09:37:51;11.30;88.50
37289;DHT22;23174;49.462;11.000;2023-04-06T09:40:02;11.50;89.30
37289;DHT22;23174;49.462;11.000;2023-04-06T09:42:03;11.40;87.10
37289;DHT22;23174;49.462;11.000;2023-04-06T09:44:06;11.50;86.70
37289;DHT22;23174;49.462;11.000;2023-04-06T09:46:07;11.50;86.30
37289;DHT22;23174;49.462;11.000;2023-04-06T09:48:07;11.50;85.60
37289;DHT22;23174;49.462;11.000;2023-04-06T09:50:09;11.50;86.80
37289;DHT22;23174;49.462;11.000;2023-04-06T09:52:11;11.40;83.90
37289;DHT22;23174;49.462;11.000;2023-04-06T09:54:18;11.40;84.50
37289;DHT22;23174;49.462;11.000;2023-04-06T09:56:23;11.50;84.50
37289;DHT22;23174;49.462;11.000;2023-04-06T09:58:26;11.70;86.00
37289;DHT22;23174;49.462;11.000;2023-04-06T10:00:28;11.80;87.60
37289;DHT22;23174;49.462;11.000;2023-04-06T10:02:46;11.70;84.90
37289;DHT22;23174;49.462;11.000;2023-04-06T10:07:26;11.60;85.40
37289;DHT22;23174;49.462;11.000;2023-04-06T10:09:29;11.50;84.90
37289;DHT22;23174;49.462;11.000;2023-04-06T10:11:36;11.50;85.70
37289;DHT22;23174;49.462;11.000;2023-04-06T10:13:36;11.70;85.80
37289;DHT22;23174;49.462;11.000;2023-04-06T10:15:38;11.80;83.50
37289;DHT22;23174;49.462;11.000;2023-04-06T10:17:40;11.70;83.00
37289;DHT22;23174;49.462;11.000;2023-04-06T10:20:01;11.80;84.20
37289;DHT22;23174;49.462;11.000;2023-04-06T10:22:03;12.00;85.10
37289;DHT22;23174;49.462;11.000;2023-04-06T10:24:08;12.20;84.80
37289;DHT22;23174;49.462;11.000;2023-04-06T10:26:14;12.20;87.40
37289;DHT22;23174;49.462;11.000;2023-04-06T10:28:15;12.00;84.20
37289;DHT22;23174;49.462;11.000;2023-04-06T10:30:15;12.10;85.90
37289;DHT22;23174;49.462;11.000;2023-04-06T10:32:17;12.00;85.10
37289;DHT22;23174;49.462;11.000;2023-04-06T10:34:18;12.20;86.60
37289;DHT22;23174;49.462;11.000;2023-04-06T10:36:24;12.20;85.90
37289;DHT22;23174;49.462;11.000;2023-04-06T10:38:39;12.30;83.90
37289;DHT22;23174;49.462;11.000;2023-04-06T10:40:41;12.30;83.50
37289;DHT22;23174;49.462;11.000;2023-04-06T10:42:47;12.30;85.70
37289;DHT22;23174;49.462;11.000;2023-04-06T10:44:49;12.10;81.90
37289;DHT22;23174;49.462;11.000;2023-04-06T10:46:58;12.00;86.20
37289;DHT22;23174;49.462;11.000;2023-04-06T10:49:11;12.10;82.60
37289;DHT22;23174;49.462;11.000;2023-04-06T10:51:16;12.20;82.70
37289;DHT22;23174;49.462;11.000;2023-04-06T10:53:25;12.20;82.50
37289;DHT22;23174;49.462;11.000;2023-04-06T10:55:27;12.20;81.20
37289;DHT22;23174;49.462;11.000;2023-04-06T10:57:29;12.30;82.30
37289;DHT22;23174;49.462;11.000;2023-04-06T10:59:31;12.50;82.00
37289;DHT22;23174;49.462;11.000;2023-04-06T11:01:31;12.60;83.20
37289;DHT22;23174;49.462;11.000;2023-04-06T11:03:45;12.60;81.40
37289;DHT22;23174;49.462;11.000;2023-04-06T11:05:50;12.50;80.20
37289;DHT22;23174;49.462;11.000;2023-04-06T11:07:51;12.40;80.70
37289;DHT22;23174;49.462;11.000;2023-04-06T11:09:52;12.30;80.80
37289;DHT22;23174;49.462;11.000;2023-04-06T11:11:53;12.20;81.10
37289;DHT22;23174;49.462;11.000;2023-04-06T11:13:59;12.40;78.70
37289;DHT22;23174;49.462;11.000;2023-04-06T11:16:00;12.40;80.60
37289;DHT22;23174;49.462;11.000;2023-04-06T11:18:04;12.30;78.20
37289;DHT22;23174;49.462;11.000;2023-04-06T11:20:10;12.30;78.60
37289;DHT22;23174;49.462;11.000;2023-04-06T11:22:11;12.30;79.90
37289;DHT22;23174;49.462;11.000;2023-04-06T11:24:20;12.30;78.60
37289;DHT22;23174;49.462;11.000;2023-04-06T11:26:21;12.20;80.40
37289;DHT22;23174;49.462;11.000;2023-04-06T11:28:22;12.50;80.80
37289;DHT22;23174;49.462;11.000;2023-04-06T11:30:22;12.60;81.30
37289;DHT22;23174;49.462;11.000;2023-04-06T11:32:23;12.60;79.00
37289;DHT22;23174;49.462;11.000;2023-04-06T11:34:25;12.60;78.80
37289;DHT22;23174;49.462;11.000;2023-04-06T11:36:29;12.60;78.10
37289;DHT22;23174;49.462;11.000;2023-04-06T11:38:30;12.50;76.50
37289;DHT22;23174;49.462;11.000;2023-04-06T11:40:31;12.20;77.50
37289;DHT22;23174;49.462;11.000;2023-04-06T11:42:34;12.40;81.20
37289;DHT22;23174;49.462;11.000;2023-04-06T11:44:37;12.50;79.10
37289;DHT22;23174;49.462;11.000;2023-04-06T11:46:52;12.30;77.40
37289;DHT22;23174;49.462;11.000;2023-04-06T11:49:01;12.40;78.00
37289;DHT22;23174;49.462;11.000;2023-04-06T11:51:02;12.30;76.90
37289;DHT22;23174;49.462;11.000;2023-04-06T11:53:05;12.30;77.00
37289;DHT22;23174;49.462;11.000;2023-04-06T11:55:17;12.30;77.10
37289;DHT22;23174;49.462;11.000;2023-04-06T11:57:20;12.30;78.00
37289;DHT22;23174;49.462;11.000;2023-04-06T11:59:21;12.40;80.60
37289;DHT22;23174;49.462;11.000;2023-04-06T12:01:22;12.70;79.70
37289;DHT22;23174;49.462;11.000;2023-04-06T12:03:23;13.00;77.70
37289;DHT22;23174;49.462;11.000;2023-04-06T12:05:23;13.00;75.40
37289;DHT22;23174;49.462;11.000;2023-04-06T12:07:25;12.90;79.60
37289;DHT22;23174;49.462;11.000;2023-04-06T12:09:26;13.00;77.80
37289;DHT22;23174;49.462;11.000;2023-04-06T12:11:26;13.00;78.80
37289;DHT22;23174;49.462;11.000;2023-04-06T12:13:27;12.90;79.60
37289;DHT22;23174;49.462;11.000;2023-04-06T12:15:28;12.80;78.00
37289;DHT22;23174;49.462;11.000;2023-04-06T12:17:28;12.70;79.90
37289;DHT22;23174;49.462;11.000;2023-04-06T12:19:29;12.80;77.40
37289;DHT22;23174;49.462;11.000;2023-04-06T12:21:30;13.00;76.50
37289;DHT22;23174;49.462;11.000;2023-04-06T12:23:32;13.00;77.60
37289;DHT22;23174;49.462;11.000;2023-04-06T12:25:32;12.90;76.40
37289;DHT22;23174;49.462;11.000;2023-04-06T12:27:33;12.90;75.10
37289;DHT22;23174;49.462;11.000;2023-04-06T12:29:34;13.10;78.10
37289;DHT22;23174;49.462;11.000;2023-04-06T12:31:35;13.30;75.10
37289;DHT22;23174;49.462;11.000;2023-04-06T12:33:36;13.20;75.50
37289;DHT22;23174;49.462;11.000;2023-04-06T12:35:37;13.30;76.00
37289;DHT22;23174;49.462;11.000;2023-04-06T12:37:39;13.40;74.30
37289;DHT22;23174;49.462;11.000;2023-04-06T12:39:40;13.30;74.80
37289;DHT22;23174;49.462;11.000;2023-04-06T12:41:41;13.30;74.60
37289;DHT22;23174;49.462;11.000;2023-04-06T12:43:43;13.40;75.10
37289;DHT22;23174;49.462;11.000;2023-04-06T12:45:44;13.50;74.80
37289;DHT22;23174;49.462;11.000;2023-04-06T12:47:45;13.40;74.60